Time;durP1;ratioP1;P1;durP2;ratioP2;P2;SDS_P1;SDS_P2;PMS_P1;PMS_P2;Temp;Humidity;BMP_temperature;BMP_pressure;BME280_temperature;BME280_humidity;BME280_pressure;Samples;Min_cycle;Max_cycle;Signal;HPM_P1;HPM_P2
2021/06/28 00:00:34;;;;;;;7.67;6.85;;;;;;;16.80;74.67;101395.42;1750356;81;21034;-87
2021/06/28 00:03:03;;;;;;;12.73;7.33;;;;;;;16.85;74.61;101399.05;1750085;81;20994;-88
2021/06/28 00:05:30;;;;;;;11.73;7.17;;;;;;;16.92;74.62;101393.37;1750288;81;21093;-88
2021/06/28 00:07:57;;;;;;;8.30;6.80;;;;;;;16.97;74.50;101389.87;1750441;82;21049;-89
2021/06/28 00:10:26;;;;;;;8.75;6.87;;;;;;;17.02;74.44;101393.89;1750626;81;21751;-90
2021/06/28 00:12:54;;;;;;;8.10;6.87;;;;;;;17.05;74.34;101394.81;1750403;81;21479;-89
2021/06/28 00:15:26;;;;;;;10.50;6.92;;;;;;;17.07;74.16;101392.17;1750373;81;21653;-89
2021/06/28 00:17:53;;;;;;;11.05;7.70;;;;;;;17.08;74.14;101391.31;1750362;81;21495;-89
2021/06/28 00:20:19;;;;;;;8.63;6.62;;;;;;;17.08;74.15;101386.88;1745893;81;21073;-89
2021/06/28 00:22:47;;;;;;;8.00;6.58;;;;;;;17.09;74.12;101389.96;1745777;81;21784;-90
2021/06/28 00:25:17;;;;;;;9.53;7.05;;;;;;;17.12;74.09;101389.13;1750250;82;20987;-89
2021/06/28 00:27:44;;;;;;;7.00;6.30;;;;;;;17.12;74.00;101381.14;1750269;81;21065;-89
2021/06/28 00:30:14;;;;;;;9.68;6.83;;;;;;;17.13;74.00;101380.24;1751940;81;21037;-90
2021/06/28 00:32:41;;;;;;;6.92;5.97;;;;;;;17.10;73.95;101380.23;1752774;81;21022;-90
2021/06/28 00:35:09;;;;;;;8.40;6.87;;;;;;;17.07;73.96;101382.86;1752775;81;21806;-91
2021/06/28 00:37:36;;;;;;;8.73;6.55;;;;;;;17.06;73.96;101379.73;1752722;81;21014;-89
2021/06/28 00:40:05;;;;;;;7.87;6.10;;;;;;;17.04;73.97;101384.16;1731512;81;21041;-90
2021/06/28 00:42:40;;;;;;;7.58;5.95;;;;;;;17.05;74.02;101389.49;1752663;81;21355;-90
2021/06/28 00:45:28;;;;;;;7.97;7.00;;;;;;;17.03;73.98;101383.72;1751665;81;21507;-91
2021/06/28 00:47:58;;;;;;;9.88;6.75;;;;;;;17.01;73.94;101387.69;1752842;81;21871;-91
2021/06/28 00:50:36;;;;;;;8.70;7.30;;;;;;;16.95;73.90;101385.40;1752740;81;21062;-93
2021/06/28 00:53:08;;;;;;;8.35;6.90;;;;;;;16.87;73.95;101383.59;1750617;81;21119;-92
2021/06/28 00:55:35;;;;;;;9.65;6.78;;;;;;;16.80;73.92;101384.78;1752799;81;21209;-93
2021/06/28 00:58:02;;;;;;;8.08;6.47;;;;;;;16.71;73.89;101384.28;1752658;81;21021;-90
2021/06/28 01:00:29;;;;;;;8.30;7.20;;;;;;;16.62;73.99;101379.75;1752795;81;21771;-90
2021/06/28 01:03:05;;;;;;;10.43;7.30;;;;;;;16.55;74.01;101382.33;1752605;81;21025;-91
2021/06/28 01:05:35;;;;;;;11.57;6.90;;;;;;;16.47;74.08;101384.91;1752496;81;21033;-91
2021/06/28 01:08:03;;;;;;;8.25;6.67;;;;;;;16.39;74.22;101382.62;1752663;81;21504;-91
2021/06/28 01:10:30;;;;;;;9.20;7.10;;;;;;;16.33;74.34;101375.47;1752805;81;21017;-90
2021/06/28 01:13:11;;;;;;;15.20;7.15;;;;;;;16.30;74.45;101373.65;1752634;81;21747;-91
2021/06/28 01:15:39;;;;;;;9.58;7.60;;;;;;;16.25;74.47;101377.13;1751145;81;21018;-91
2021/06/28 01:18:06;;;;;;;10.53;7.28;;;;;;;16.19;74.58;101381.05;1756938;81;21042;-91
2021/06/28 01:20:33;;;;;;;8.53;6.83;;;;;;;16.13;74.71;101382.75;1752983;81;21465;-91
2021/06/28 01:23:17;;;;;;;11.85;7.50;;;;;;;16.09;74.72;101386.69;1752852;81;21053;-90
2021/06/28 01:25:49;;;;;;;9.98;7.37;;;;;;;16.05;74.82;101377.78;1752744;81;21693;-88
2021/06/28 01:28:18;;;;;;;8.93;7.22;;;;;;;16.01;74.89;101379.95;1752537;81;21046;-89
2021/06/28 01:30:45;;;;;;;11.03;7.87;;;;;;;15.97;74.94;101386.07;1754516;81;20986;-87
2021/06/28 01:33:11;;;;;;;7.53;6.72;;;;;;;15.91;75.06;101384.67;1755154;81;21026;-87
2021/06/28 01:35:40;;;;;;;10.32;7.33;;;;;;;15.87;75.17;101382.86;1755226;80;21001;-87
2021/06/28 01:38:08;;;;;;;12.20;7.75;;;;;;;15.83;75.21;101377.05;1755220;81;21722;-89
2021/06/28 01:40:37;;;;;;;11.55;7.62;;;;;;;15.80;75.28;101377.00;1754935;81;21010;-89
2021/06/28 01:43:04;;;;;;;11.60;7.17;;;;;;;15.77;75.42;101372.55;1755100;81;21050;-88
2021/06/28 01:45:31;;;;;;;12.78;7.62;;;;;;;15.74;75.46;101372.05;1755095;81;21547;-87
2021/06/28 01:47:58;;;;;;;8.95;7.60;;;;;;;15.71;75.55;101367.10;1755016;81;21676;-88
2021/06/28 01:50:31;;;;;;;12.23;7.35;;;;;;;15.69;75.62;101376.81;1755012;81;21747;-89
2021/06/28 01:52:57;;;;;;;12.00;7.72;;;;;;;15.64;75.63;101376.77;1723539;81;22078;-89
2021/06/28 01:55:25;;;;;;;11.38;8.03;;;;;;;15.61;75.73;101375.83;1754988;81;21432;-89
2021/06/28 01:58:18;;;;;;;14.13;8.18;;;;;;;15.57;75.79;101374.00;1716284;81;21033;-87
2021/06/28 02:00:54;;;;;;;15.05;8.40;;;;;;;15.53;75.93;101371.30;1754674;81;21566;-88
2021/06/28 02:03:23;;;;;;;13.75;8.28;;;;;;;15.51;75.97;101362.86;1723491;81;21810;-88
2021/06/28 02:05:52;;;;;;;11.88;8.60;;;;;;;15.49;76.04;101360.62;1754977;81;20971;-87
2021/06/28 02:08:21;;;;;;;11.97;8.50;;;;;;;15.47;76.08;101363.25;1754928;81;21044;-87
2021/06/28 02:10:51;;;;;;;10.08;8.25;;;;;;;15.47;76.18;101365.02;1755114;81;21038;-88
2021/06/28 02:13:20;;;;;;;11.25;7.60;;;;;;;15.46;76.29;101368.53;1754938;81;21038;-89
2021/06/28 02:15:47;;;;;;;10.63;7.22;;;;;;;15.44;76.33;101363.19;1754542;81;21762;-88
2021/06/28 02:18:14;;;;;;;11.75;7.53;;;;;;;15.44;76.37;101358.33;1755010;80;21021;-88
2021/06/28 02:20:40;;;;;;;12.37;7.17;;;;;;;15.45;76.43;101356.16;1754914;81;21006;-89
2021/06/28 02:23:28;;;;;;;9.60;7.53;;;;;;;15.46;76.34;101355.27;1754924;81;20972;-88
2021/06/28 02:26:15;;;;;;;11.20;7.40;;;;;;;15.44;76.31;101354.35;1754909;80;21052;-89
2021/06/28 02:28:59;;;;;;;10.05;7.85;;;;;;;15.43;76.28;101349.48;1625647;87;21394;-89
2021/06/28 02:31:27;;;;;;;11.18;7.75;;;;;;;15.40;76.08;101355.19;1634481;87;21483;-91
2021/06/28 02:33:54;;;;;;;12.93;8.15;;;;;;;15.36;76.16;101353.80;1634932;87;21029;-89
2021/06/28 02:36:21;;;;;;;12.25;7.78;;;;;;;15.36;76.28;101351.15;1634844;87;21042;-88
2021/06/28 02:38:48;;;;;;;14.10;8.10;;;;;;;15.38;76.30;101355.59;1635198;87;21025;-88
2021/06/28 02:41:17;;;;;;;13.68;7.85;;;;;;;15.37;76.32;101353.36;1634820;86;21806;-86
2021/06/28 02:43:43;;;;;;;10.93;7.58;;;;;;;15.40;76.31;101359.16;1634771;87;21649;-84
2021/06/28 02:46:10;;;;;;;12.58;7.55;;;;;;;15.43;76.24;101354.80;1634907;87;20986;-87
2021/06/28 02:48:37;;;;;;;11.25;7.50;;;;;;;15.45;76.25;101353.05;1634962;87;21125;-88
2021/06/28 02:51:06;;;;;;;10.20;6.95;;;;;;;15.49;76.20;101354.88;1634954;87;21034;-88
2021/06/28 02:53:33;;;;;;;9.28;6.92;;;;;;;15.56;76.30;101351.89;1634878;86;21735;-88
2021/06/28 02:56:15;;;;;;;10.98;6.83;;;;;;;15.64;76.19;101355.53;1635020;87;21088;-89
2021/06/28 02:58:46;;;;;;;9.50;7.45;;;;;;;15.70;75.97;101356.05;1634985;87;21092;-88
2021/06/28 03:01:16;;;;;;;10.68;7.40;;;;;;;15.74;75.93;101356.58;1634732;87;21088;-88
2021/06/28 03:03:43;;;;;;;13.95;7.22;;;;;;;15.81;75.90;101354.47;1634881;87;21108;-88
2021/06/28 03:06:09;;;;;;;10.80;6.62;;;;;;;15.89;75.77;101357.22;1691828;81;21770;-89
2021/06/28 03:08:36;;;;;;;7.70;6.87;;;;;;;15.99;75.75;101360.88;1752851;81;21026;-89
2021/06/28 03:11:04;;;;;;;11.18;7.42;;;;;;;16.04;75.67;101364.04;1752938;81;21538;-87
2021/06/28 03:13:34;;;;;;;9.33;7.25;;;;;;;16.12;75.59;101361.47;1752695;81;20991;-89
2021/06/28 03:16:01;;;;;;;9.93;7.12;;;;;;;16.25;75.58;101365.17;1752584;81;21037;-89
2021/06/28 03:18:28;;;;;;;14.07;6.50;;;;;;;16.37;75.45;101358.68;1752872;81;21758;-91
2021/06/28 03:20:55;;;;;;;10.72;6.60;;;;;;;16.49;75.29;101361.45;1754375;80;21076;-93
2021/06/28 03:23:21;;;;;;;11.48;7.10;;;;;;;16.62;75.17;101358.48;1763939;80;21124;-92
2021/06/28 03:25:48;;;;;;;13.58;7.35;;;;;;;16.75;75.05;101362.16;1735503;80;21130;-92
2021/06/28 03:28:15;;;;;;;12.85;6.37;;;;;;;16.94;75.05;101363.24;1713257;83;21150;-89
2021/06/28 03:30:41;;;;;;;18.20;7.03;;;;;;;17.16;74.86;101357.66;1714172;83;21834;-86
2021/06/28 03:33:12;;;;;;;6.92;6.08;;;;;;;17.86;76.83;101355.02;1717932;82;21018;-88
2021/06/28 03:35:40;;;;;;;9.15;6.12;;;;;;;19.47;77.16;101354.37;1723020;83;21026;-91
2021/06/28 03:38:06;;;;;;;8.88;6.08;;;;;;;20.66;74.87;101358.78;1720319;83;21484;-89
2021/06/28 03:40:34;;;;;;;11.90;6.12;;;;;;;21.89;73.55;101348.73;1720114;83;21140;-88
2021/06/28 03:43:08;;;;;;;6.15;5.45;;;;;;;22.13;69.64;101348.87;1719764;83;42215;-88
2021/06/28 03:45:40;;;;;;;7.60;6.03;;;;;;;21.76;68.18;101347.98;1719935;83;21034;-87
2021/06/28 03:48:07;;;;;;;9.03;6.12;;;;;;;21.50;67.58;101353.17;1723713;83;21382;-87
2021/06/28 03:50:34;;;;;;;6.25;5.08;;;;;;;21.53;67.61;101349.13;1691752;83;21100;-90
2021/06/28 03:53:05;;;;;;;10.75;5.83;;;;;;;22.47;68.92;101345.75;1720196;83;21617;-87
2021/06/28 03:55:32;;;;;;;9.75;5.67;;;;;;;23.98;68.18;101343.97;1691399;83;21710;-87
2021/06/28 03:57:59;;;;;;;6.90;4.90;;;;;;;25.74;66.54;101336.50;1720219;83;21050;-84
2021/06/28 04:00:28;;;;;;;6.78;5.22;;;;;;;27.23;63.81;101339.01;1720124;83;21556;-87
2021/06/28 04:02:57;;;;;;;7.65;5.42;;;;;;;28.56;62.01;101337.68;1720123;83;21207;-86
2021/06/28 04:05:24;;;;;;;10.20;5.90;;;;;;;29.73;59.54;101335.41;1719990;83;21630;-85
2021/06/28 04:07:51;;;;;;;6.45;5.58;;;;;;;30.84;57.52;101330.55;1720219;83;21770;-85
2021/06/28 04:10:20;;;;;;;6.53;4.37;;;;;;;31.85;55.97;101334.77;1715279;83;21372;-86
2021/06/28 04:12:47;;;;;;;10.28;4.85;;;;;;;32.80;53.76;101332.60;1710525;83;21023;-89
2021/06/28 04:15:14;;;;;;;9.30;4.92;;;;;;;33.75;52.18;101323.22;1709089;83;21015;-86
2021/06/28 04:17:45;;;;;;;4.83;4.42;;;;;;;34.63;50.22;101325.70;1709119;83;21149;-86
2021/06/28 04:20:14;;;;;;;6.87;4.20;;;;;;;35.36;48.56;101331.24;1708647;83;22753;-85
2021/06/28 04:22:41;;;;;;;6.80;4.50;;;;;;;36.07;46.96;101331.17;1709037;84;21524;-86
2021/06/28 04:25:10;;;;;;;6.58;4.15;;;;;;;36.71;45.21;101331.50;1694549;83;21016;-88
2021/06/28 04:27:37;;;;;;;9.78;4.55;;;;;;;37.16;43.78;101327.59;1682472;84;21234;-87
2021/06/28 04:30:05;;;;;;;7.00;4.37;;;;;;;37.61;42.54;101331.81;1697022;80;21064;-86
2021/06/28 04:32:35;;;;;;;5.03;4.22;;;;;;;38.06;41.38;101342.80;1748954;82;21758;-87
2021/06/28 04:35:08;;;;;;;4.50;3.95;;;;;;;38.45;39.97;101336.41;1748720;82;21053;-84
2021/06/28 04:37:34;;;;;;;;;;;;;;;38.63;38.50;101338.14;1751899;81;21104;-85
2021/06/28 04:40:04;;;;;;;6.17;3.83;;;;;;;38.79;37.10;101337.70;1749113;80;20404;-84
2021/06/28 04:42:31;;;;;;;7.47;3.67;;;;;;;38.95;37.34;101332.23;1769707;80;21057;-85
2021/06/28 04:44:57;;;;;;;5.37;3.52;;;;;;;39.44;36.35;101334.41;1775350;80;21787;-91
2021/06/28 04:47:24;;;;;;;5.08;4.17;;;;;;;39.80;35.50;101329.88;1775423;80;21058;-92
2021/06/28 04:49:51;;;;;;;4.47;3.85;;;;;;;40.22;34.64;101334.75;1775865;80;21297;-86
2021/06/28 04:52:17;;;;;;;5.40;3.55;;;;;;;40.56;33.89;101330.27;1775224;80;21172;-89
2021/06/28 04:54:44;;;;;;;5.58;3.52;;;;;;;40.85;33.14;101328.60;1775407;80;21146;-86
2021/06/28 04:57:13;;;;;;;5.25;3.05;;;;;;;41.13;32.53;101327.70;1775439;80;21718;-85
2021/06/28 04:59:39;;;;;;;3.85;3.30;;;;;;;41.62;32.03;101322.59;1775162;80;21128;-88
2021/06/28 05:02:05;;;;;;;9.30;3.62;;;;;;;42.10;31.25;101320.16;1775412;80;20979;-88
2021/06/28 05:04:32;;;;;;;5.58;3.60;;;;;;;42.44;30.57;101320.88;1775068;80;21274;-87
2021/06/28 05:06:59;;;;;;;3.65;2.98;;;;;;;42.79;29.75;101317.81;1775260;80;21135;-88
2021/06/28 05:09:26;;;;;;;3.35;3.05;;;;;;;43.04;29.13;101321.19;1775194;80;22505;-87
2021/06/28 05:11:52;;;;;;;3.70;3.20;;;;;;;43.15;28.36;101326.09;1775169;80;21519;-92
2021/06/28 05:14:20;;;;;;;6.00;3.33;;;;;;;43.42;28.25;101333.44;1775358;80;21022;-89
2021/06/28 05:16:46;;;;;;;5.62;3.30;;;;;;;43.79;27.79;101335.05;1775344;80;20979;-88
2021/06/28 05:19:13;;;;;;;4.25;3.83;;;;;;;44.04;27.12;101334.13;1775539;80;21200;-89
2021/06/28 05:21:40;;;;;;;5.58;3.42;;;;;;;44.24;26.41;101338.92;1775454;80;21393;-88
2021/06/28 05:24:07;;;;;;;3.70;3.25;;;;;;;44.14;26.07;101332.63;1775349;80;21080;-88
2021/06/28 05:26:34;;;;;;;4.53;3.30;;;;;;;44.37;25.81;101334.25;1775780;80;21046;-89
2021/06/28 05:32:39;;;;;;;4.50;4.10;;;;;;;45.01;25.04;101341.52;1762768;80;21261;-91
2021/06/28 05:35:10;;;;;;;5.20;4.70;;;;;;;44.64;24.18;101341.46;1765269;81;21787;-88
2021/06/28 05:37:37;;;;;;;5.00;4.30;;;;;;;44.30;24.11;101337.88;1746420;81;21511;-87
2021/06/28 05:40:05;;;;;;;4.47;4.05;;;;;;;43.92;23.87;101343.77;1710863;83;21586;-87
2021/06/28 05:42:32;;;;;;;4.92;3.92;;;;;;;43.41;23.96;101342.25;1710916;83;21207;-85
2021/06/28 05:44:58;;;;;;;7.20;3.90;;;;;;;43.11;23.92;101343.03;1710870;83;21006;-86
2021/06/28 05:47:25;;;;;;;8.08;4.20;;;;;;;41.46;23.41;101339.80;1710534;83;21754;-88
2021/06/28 05:49:52;;;;;;;7.37;4.40;;;;;;;38.57;24.11;101337.78;1710671;83;21076;-87
2021/06/28 05:52:21;;;;;;;6.55;4.40;;;;;;;35.95;25.77;101343.05;1688008;83;21084;-86
2021/06/28 05:54:47;;;;;;;9.80;4.62;;;;;;;34.03;27.41;101340.55;1711031;83;21480;-86
2021/06/28 05:57:15;;;;;;;5.47;4.33;;;;;;;32.46;28.89;101344.08;1710955;83;21013;-87
2021/06/28 05:59:42;;;;;;;5.00;4.15;;;;;;;30.96;30.20;101338.13;1710793;83;21806;-87
2021/06/28 06:02:09;;;;;;;5.65;4.58;;;;;;;29.79;31.78;101347.81;1710794;83;21645;-90
2021/06/28 06:04:35;;;;;;;6.60;5.15;;;;;;;28.75;33.09;101354.05;1711074;83;21053;-88
2021/06/28 06:07:02;;;;;;;7.58;5.12;;;;;;;27.77;34.36;101356.03;1710916;83;21104;-87
2021/06/28 06:09:29;;;;;;;8.00;5.33;;;;;;;27.19;35.67;101356.75;1710901;83;21025;-87
2021/06/28 06:11:55;;;;;;;10.82;6.17;;;;;;;26.74;36.61;101356.42;1710881;83;22465;-86
2021/06/28 06:14:22;;;;;;;7.83;6.25;;;;;;;26.10;37.55;101362.00;1710659;83;21115;-84
2021/06/28 06:16:49;;;;;;;7.20;5.08;;;;;;;25.57;38.66;101367.98;1710828;83;21037;-86
2021/06/28 06:19:16;;;;;;;8.28;5.50;;;;;;;25.12;39.61;101371.42;1710791;83;21097;-85
2021/06/28 06:21:43;;;;;;;7.92;5.53;;;;;;;24.81;40.41;101368.13;1710897;83;21049;-89
2021/06/28 06:24:10;;;;;;;5.42;4.90;;;;;;;24.66;41.13;101370.73;1710808;83;22503;-88
2021/06/28 06:26:36;;;;;;;7.33;4.90;;;;;;;24.58;41.86;101372.73;1711028;83;21037;-90
2021/06/28 06:29:03;;;;;;;6.87;4.65;;;;;;;24.53;42.39;101368.81;1711084;83;21080;-89
2021/06/28 06:31:30;;;;;;;8.53;6.05;;;;;;;24.37;42.54;101368.70;1711224;83;21154;-90
2021/06/28 06:33:57;;;;;;;5.20;4.20;;;;;;;24.34;43.12;101369.63;1709488;82;21047;-87
2021/06/28 06:36:24;;;;;;;10.95;4.20;;;;;;;24.30;43.47;101371.09;1709650;84;21789;-89
2021/06/28 06:38:50;;;;;;;4.10;3.70;;;;;;;24.22;43.59;101381.55;1709628;84;21005;-90
2021/06/28 06:41:17;;;;;;;7.15;3.12;;;;;;;24.14;43.67;101382.63;1709550;84;21092;-89
2021/06/28 06:43:44;;;;;;;5.28;3.25;;;;;;;24.01;43.70;101376.19;1709548;84;21160;-89
2021/06/28 06:46:10;;;;;;;4.05;3.45;;;;;;;23.90;43.86;101376.86;1709700;84;21002;-89
2021/06/28 06:48:37;;;;;;;3.72;3.22;;;;;;;23.70;43.91;101381.72;1709582;84;21910;-89
2021/06/28 06:51:04;;;;;;;3.85;2.83;;;;;;;23.42;44.29;101379.54;1709415;84;21108;-89
2021/06/28 06:53:31;;;;;;;4.12;3.50;;;;;;;23.14;44.51;101382.70;1709320;84;21061;-89
2021/06/28 06:55:58;;;;;;;4.42;3.33;;;;;;;23.02;45.10;101384.24;1709518;84;21018;-88
2021/06/28 06:58:24;;;;;;;5.28;4.58;;;;;;;22.91;45.38;101388.44;1709445;84;21045;-88
2021/06/28 07:00:51;;;;;;;7.55;5.58;;;;;;;22.81;45.69;101369.37;1709941;84;22440;-87
2021/06/28 07:03:18;;;;;;;5.37;4.08;;;;;;;22.90;46.05;101382.66;1709493;84;21017;-87
2021/06/28 07:05:45;;;;;;;4.62;3.27;;;;;;;22.97;46.39;101382.08;1709466;84;21018;-87
2021/06/28 07:08:12;;;;;;;5.22;3.87;;;;;;;23.07;46.57;101365.83;1709432;84;21551;-87
2021/06/28 07:10:38;;;;;;;5.12;4.62;;;;;;;23.07;46.57;101365.83;1709680;84;21057;-87
2021/06/28 07:13:05;;;;;;;5.50;4.40;;;;;;;23.30;46.70;101390.06;1709531;84;21693;-88
2021/06/28 07:15:32;;;;;;;5.55;3.87;;;;;;;23.40;46.73;101388.09;1709287;84;21116;-88
2021/06/28 07:17:59;;;;;;;4.50;4.10;;;;;;;23.66;47.01;101396.55;1709519;84;20994;-89
2021/06/28 07:20:25;;;;;;;5.05;4.35;;;;;;;23.86;46.70;101392.17;1709507;84;21064;-89
2021/06/28 07:22:52;;;;;;;7.30;4.05;;;;;;;24.07;46.64;101396.69;1709718;84;21006;-89
2021/06/28 07:25:20;;;;;;;5.62;3.80;;;;;;;24.10;46.56;101384.97;1678939;84;21985;-90
2021/06/28 07:27:47;;;;;;;9.03;4.30;;;;;;;24.47;46.52;101397.16;1709438;83;21005;-90
2021/06/28 07:30:16;;;;;;;5.05;3.25;;;;;;;24.77;46.16;101395.59;1709582;84;21066;-88
2021/06/28 07:32:42;;;;;;;6.50;4.08;;;;;;;25.06;46.12;101389.06;1709347;83;21010;-89
2021/06/28 07:35:10;;;;;;;5.80;3.80;;;;;;;25.28;45.62;101383.58;1709719;84;20947;-89
2021/06/28 07:37:37;;;;;;;12.68;3.92;;;;;;;25.37;45.52;101387.38;1709458;84;22633;-89
2021/06/28 07:40:05;;;;;;;7.50;4.30;;;;;;;25.41;45.18;101382.80;1709268;84;21127;-89
2021/06/28 07:42:33;;;;;;;5.47;4.80;;;;;;;25.38;44.85;101391.86;1709607;84;21042;-89
2021/06/28 07:44:59;;;;;;;9.55;5.15;;;;;;;25.32;44.80;101393.81;1709547;84;21026;-89
2021/06/28 07:47:26;;;;;;;4.58;4.17;;;;;;;25.20;44.75;101393.65;1709574;84;21448;-89
2021/06/28 07:49:53;;;;;;;6.25;4.03;;;;;;;25.02;45.09;101390.98;1709602;84;21754;-89
2021/06/28 07:52:19;;;;;;;6.17;4.40;;;;;;;25.04;45.47;101393.17;1691118;83;21538;-89
2021/06/28 07:54:46;;;;;;;5.17;3.90;;;;;;;24.98;45.16;101390.17;1709530;84;21073;-89
2021/06/28 07:57:13;;;;;;;5.97;5.37;;;;;;;24.98;45.54;101391.95;1709152;84;21334;-89
2021/06/28 07:59:40;;;;;;;4.62;4.15;;;;;;;24.93;45.36;101390.73;1709505;84;21030;-89
2021/06/28 08:02:06;;;;;;;6.80;4.60;;;;;;;24.71;45.16;101390.83;1709569;84;21725;-89
2021/06/28 08:04:33;;;;;;;5.10;3.62;;;;;;;24.61;45.42;101391.04;1709408;84;21006;-89
2021/06/28 08:07:00;;;;;;;4.53;3.70;;;;;;;24.70;45.44;101389.04;1709544;84;20994;-89
2021/06/28 08:09:26;;;;;;;10.20;7.45;;;;;;;24.90;45.29;101392.14;1709515;84;21221;-89
2021/06/28 08:11:57;;;;;;;7.20;4.33;;;;;;;25.21;44.93;101374.75;1709548;84;21029;-89
2021/06/28 08:14:21;;;;;;;5.17;3.75;;;;;;;25.53;44.54;101383.83;1709393;83;22613;-89
2021/06/28 08:16:48;;;;;;;3.55;2.75;;;;;;;25.70;43.85;101385.19;1709521;84;20994;-89
2021/06/28 08:19:15;;;;;;;3.00;2.72;;;;;;;25.76;43.82;101379.61;1709469;84;21025;-89
2021/06/28 08:21:42;;;;;;;5.70;2.72;;;;;;;25.80;43.56;101383.98;1691372;83;21081;-89
2021/06/28 08:24:09;;;;;;;6.08;3.30;;;;;;;25.74;43.36;101382.34;1709546;84;21502;-89
2021/06/28 08:26:37;;;;;;;4.62;3.45;;;;;;;25.66;43.39;101382.13;1709655;84;21816;-89
2021/06/28 08:29:04;;;;;;;4.12;3.20;;;;;;;25.61;43.76;101380.92;1709141;84;21121;-89
2021/06/28 08:31:33;;;;;;;4.75;2.58;;;;;;;25.57;43.95;101380.59;1709628;84;21010;-89
2021/06/28 08:33:59;;;;;;;8.83;3.10;;;;;;;25.56;43.80;101378.33;1709054;82;21074;-89
2021/06/28 08:36:26;;;;;;;4.80;4.20;;;;;;;25.45;43.80;101375.52;1709118;84;21081;-89
2021/06/28 08:38:53;;;;;;;3.10;2.85;;;;;;;25.27;43.00;101375.56;1709371;84;22610;-89
2021/06/28 08:41:21;;;;;;;2.83;2.62;;;;;;;25.00;43.20;101377.98;1709255;84;21057;-89
2021/06/28 08:43:48;;;;;;;3.17;2.77;;;;;;;24.86;43.35;101378.34;1709582;84;20994;-90
2021/06/28 08:46:15;;;;;;;3.20;2.90;;;;;;;24.76;43.98;101376.80;1709431;84;21014;-89
2021/06/28 08:48:45;;;;;;;3.67;3.27;;;;;;;24.82;44.42;101380.69;1709554;84;21522;-89
2021/06/28 08:51:13;;;;;;;5.50;2.83;;;;;;;24.84;44.22;101377.48;1709784;84;21622;-88
2021/06/28 08:53:39;;;;;;;9.38;2.98;;;;;;;24.79;43.85;101375.36;1709305;84;21009;-89
2021/06/28 08:56:09;;;;;;;3.80;2.70;;;;;;;24.80;44.00;101374.45;1709542;84;21018;-90
2021/06/28 08:58:40;;;;;;;3.30;3.00;;;;;;;24.85;43.96;101373.86;1709368;84;21088;-89
2021/06/28 09:01:07;;;;;;;21.60;4.87;;;;;;;24.84;43.95;101372.98;1709104;84;21030;-87
2021/06/28 09:03:34;;;;;;;5.03;2.85;;;;;;;24.87;43.93;101376.52;1709436;84;21363;-88
2021/06/28 09:06:14;;;;;;;5.28;2.45;;;;;;;24.77;43.31;101372.70;1709246;84;21050;-88
2021/06/28 09:08:55;;;;;;;4.35;3.65;;;;;;;24.73;43.50;101372.36;1709565;84;21038;-86
2021/06/28 09:11:22;;;;;;;2.75;2.55;;;;;;;24.82;43.80;101377.52;1691225;84;21283;-88
2021/06/28 09:13:50;;;;;;;3.85;2.40;;;;;;;24.83;43.30;101375.70;1709482;84;21057;-89
2021/06/28 09:16:26;;;;;;;2.70;2.20;;;;;;;24.73;43.06;101370.14;1709350;82;21240;-87
2021/06/28 09:19:02;;;;;;;3.20;2.35;;;;;;;24.70;43.41;101367.50;1709421;84;21250;-88
2021/06/28 09:21:37;;;;;;;5.10;3.02;;;;;;;24.73;43.27;101368.31;1709222;84;21015;-87
2021/06/28 09:24:06;;;;;;;5.53;3.85;;;;;;;24.81;43.28;101362.75;1709405;84;21108;-86
2021/06/28 09:26:36;;;;;;;3.30;2.77;;;;;;;24.92;43.38;101363.36;1709276;82;21040;-85
2021/06/28 09:29:06;;;;;;;4.25;3.52;;;;;;;24.90;43.14;101369.72;1709458;84;21861;-88
2021/06/28 09:31:43;;;;;;;6.00;3.10;;;;;;;24.94;44.09;101366.02;1709292;83;21152;-87
2021/06/28 09:34:18;;;;;;;10.68;4.83;;;;;;;25.12;44.48;101366.03;1689795;83;21049;-85
2021/06/28 09:36:58;;;;;;;5.37;3.25;;;;;;;25.36;44.71;101365.42;1708790;83;21053;-89
2021/06/28 09:39:37;;;;;;;3.67;2.95;;;;;;;25.60;44.60;101366.56;1708667;83;21142;-85
2021/06/28 09:42:14;;;;;;;6.03;3.02;;;;;;;25.81;44.25;101361.49;1708285;82;22003;-85
2021/06/28 09:44:54;;;;;;;3.55;2.50;;;;;;;25.92;44.34;101359.84;1708809;84;21105;-85
2021/06/28 09:47:23;;;;;;;2.52;2.17;;;;;;;25.99;43.63;101355.56;1708649;82;21115;-84
2021/06/28 09:50:19;;;;;;;5.25;3.30;;;;;;;26.00;42.99;101356.48;1708726;84;21074;-85
2021/06/28 09:52:51;;;;;;;3.10;2.58;;;;;;;25.99;42.88;101363.66;1708626;82;21021;-84
2021/06/28 09:55:24;;;;;;;3.25;2.50;;;;;;;25.95;42.43;101359.77;1708819;84;21768;-84
2021/06/28 09:58:22;;;;;;;9.00;3.00;;;;;;;25.90;42.40;101358.97;1708978;82;21002;-87
2021/06/28 10:00:57;;;;;;;7.80;2.55;;;;;;;25.95;42.68;101357.94;1708192;84;21064;-86
2021/06/28 10:03:45;;;;;;;9.25;2.98;;;;;;;25.98;42.34;101350.24;1708823;82;21296;-86
2021/06/28 10:08:51;;;;;;;8.90;3.15;;;;;;;26.12;42.33;101349.82;1708910;84;22574;-83
2021/06/28 10:11:25;;;;;;;4.83;2.40;;;;;;;26.07;41.71;101354.02;1707244;83;21097;-83
2021/06/28 10:14:02;;;;;;;3.72;2.70;;;;;;;26.03;41.69;101345.57;1708831;84;21026;-84
2021/06/28 10:16:34;;;;;;;6.50;2.55;;;;;;;26.02;41.85;101335.73;1708799;84;21022;-86
2021/06/28 10:19:01;;;;;;;4.50;2.25;;;;;;;26.14;42.00;101343.44;1708945;84;21061;-86
2021/06/28 10:21:28;;;;;;;4.25;2.92;;;;;;;26.34;42.30;101338.78;1709015;84;21764;-84
2021/06/28 10:24:01;;;;;;;3.83;2.60;;;;;;;26.56;42.13;101339.47;1708366;83;20996;-88
2021/06/28 10:26:27;;;;;;;5.33;2.40;;;;;;;26.74;41.96;101337.52;1689231;84;21629;-85
2021/06/28 10:32:25;;;;;;;;;;;;;;;;;;;;;
2021/06/28 10:35:06;;;;;;;3.42;2.90;;;;;;;27.02;41.77;101323.08;1659260;86;21112;-85
2021/06/28 10:40:23;;;;;;;4.42;2.12;;;;;;;27.19;41.15;101323.84;1634942;86;21189;-86
2021/06/28 10:42:58;;;;;;;4.60;2.30;;;;;;;27.36;41.07;101322.41;1645314;85;21108;-89
2021/06/28 10:45:48;;;;;;;7.10;2.65;;;;;;;27.48;41.15;101325.55;1667660;86;21093;-88
2021/06/28 10:48:21;;;;;;;4.30;3.02;;;;;;;27.53;41.28;101320.83;1634738;86;21111;-86
2021/06/28 10:51:02;;;;;;;2.83;2.45;;;;;;;27.64;41.11;101325.84;1637947;86;21061;-88
2021/06/28 10:53:40;;;;;;;4.15;2.25;;;;;;;27.71;40.21;101320.63;1660270;86;21092;-86
2021/06/28 10:56:32;;;;;;;9.15;2.90;;;;;;;27.76;40.12;101327.69;1707984;83;21202;-87
2021/06/28 10:59:07;;;;;;;4.83;3.83;;;;;;;27.85;40.35;101321.92;1694832;83;21468;-87
2021/06/28 11:01:42;;;;;;;6.05;5.45;;;;;;;27.86;40.04;101317.81;1711133;83;22717;-85
2021/06/28 11:04:11;;;;;;;5.20;4.55;;;;;;;27.84;40.22;101312.06;1710848;83;21061;-86
2021/06/28 11:06:54;;;;;;;4.90;2.50;;;;;;;27.76;39.86;101318.22;1711034;83;21189;-85
2021/06/28 11:09:46;;;;;;;6.80;4.37;;;;;;;27.59;39.11;101312.09;1708551;83;21535;-86
2021/06/28 11:12:33;;;;;;;6.12;3.12;;;;;;;27.49;39.72;101304.31;1710799;83;21069;-86
2021/06/28 11:15:29;;;;;;;6.92;4.62;;;;;;;27.49;39.80;101299.38;1711178;83;21724;-90
2021/06/28 11:17:56;;;;;;;4.50;3.70;;;;;;;27.49;40.17;101300.26;1610802;87;21155;-87
2021/06/28 11:20:44;;;;;;;4.80;2.77;;;;;;;27.52;39.68;101303.34;1617222;87;21204;-89
2021/06/28 11:23:17;;;;;;;4.12;2.65;;;;;;;27.56;39.22;101302.28;1617635;87;21071;-92
2021/06/28 11:25:53;;;;;;;2.60;2.40;;;;;;;27.56;38.77;101306.81;1592077;87;21060;-87
2021/06/28 11:28:43;;;;;;;7.30;3.10;;;;;;;27.50;38.50;101298.45;1588182;90;21268;-91
2021/06/28 11:31:25;;;;;;;2.77;2.22;;;;;;;27.53;38.31;101297.84;1588454;89;21262;-89
2021/06/28 11:33:48;;;;;;;7.40;2.98;;;;;;;27.69;38.42;101291.89;1584192;89;21277;-92
2021/06/28 11:36:35;;;;;;;3.92;3.52;;;;;;;27.89;38.15;101300.61;1562199;91;21374;-84
2021/06/28 11:39:23;;;;;;;3.83;2.00;;;;;;;27.99;38.09;101285.80;1562566;91;21104;-91
2021/06/28 11:42:30;;;;;;;3.27;2.25;;;;;;;28.00;37.72;101287.54;1562063;91;21645;-91
2021/06/28 11:45:08;;;;;;;2.12;1.92;;;;;;;27.94;37.51;101280.16;1558492;92;21115;-88
2021/06/28 11:47:50;;;;;;;4.25;3.42;;;;;;;27.94;37.73;101273.39;1558492;92;21088;-90
2021/06/28 11:50:35;;;;;;;9.25;3.40;;;;;;;27.90;37.96;101287.50;1557124;92;21388;-90